createdAt,value
2023-02-22T00:01:23.783Z,19.9
2023-02-22T00:06:23.667Z,22.9
2023-02-22T00:11:23.779Z,20.1
2023-02-22T00:16:23.783Z,20.6
2023-02-22T00:21:23.779Z,18.3
2023-02-22T00:26:23.712Z,19
2023-02-22T00:31:23.804Z,19
2023-02-22T00:36:23.685Z,19
2023-02-22T00:41:23.794Z,14.8
2023-02-22T00:46:23.692Z,13.9
2023-02-22T00:51:23.769Z,15.3
2023-02-22T01:06:23.697Z,18.6
2023-02-22T01:11:23.771Z,18.1
2023-02-22T01:16:23.763Z,19.9
2023-02-22T01:21:23.783Z,20
2023-02-22T01:26:23.725Z,17.9
2023-02-22T01:31:23.824Z,17.9
2023-02-22T01:36:23.706Z,20.7
2023-02-22T01:41:23.780Z,20.8
2023-02-22T01:46:23.759Z,18.6
2023-02-22T01:51:23.773Z,18.8
2023-02-22T01:56:23.764Z,15.7
2023-02-22T02:01:23.770Z,15.7
2023-02-22T02:06:23.713Z,16.3
2023-02-22T02:11:23.773Z,17.1
2023-02-22T02:16:23.773Z,15.3
2023-02-22T02:21:23.813Z,16.5
2023-02-22T02:26:23.707Z,17.3
2023-02-22T02:31:23.784Z,17.3
2023-02-22T02:36:23.720Z,15
2023-02-22T02:41:23.810Z,18.1
2023-02-22T02:46:23.719Z,16.9
2023-02-22T02:51:23.803Z,17.1
2023-02-22T02:56:23.717Z,17.2
2023-02-22T03:01:23.838Z,17.2
2023-02-22T03:06:23.713Z,18
2023-02-22T03:11:23.785Z,18.6
2023-02-22T03:16:23.790Z,17.7
2023-02-22T03:21:23.823Z,17.8
2023-02-22T03:26:23.724Z,18.2
2023-02-22T03:31:23.824Z,18.2
2023-02-22T03:36:23.746Z,16.9
2023-02-22T03:41:23.855Z,16.5
2023-02-22T03:46:23.770Z,16.9
2023-02-22T03:51:23.812Z,14.4
2023-02-22T03:56:23.723Z,14.7
2023-02-22T04:01:23.896Z,14.7
2023-02-22T04:06:23.750Z,12.9
2023-02-22T04:11:23.796Z,14.1
2023-02-22T04:16:23.731Z,14.5
2023-02-22T04:21:23.830Z,16.2
2023-02-22T04:26:23.734Z,16.7
2023-02-22T04:31:23.885Z,16.7
2023-02-22T04:36:23.726Z,18.7
2023-02-22T04:41:25.519Z,18.2
2023-02-22T04:46:23.800Z,18.2
2023-02-22T04:51:23.834Z,19.6
2023-02-22T04:56:23.740Z,18.4
2023-02-22T05:06:23.742Z,19.4
2023-02-22T05:11:23.828Z,20.1
2023-02-22T05:16:23.825Z,18.6
2023-02-22T05:21:23.832Z,22.3
2023-02-22T05:26:23.738Z,21.2
2023-02-22T05:31:23.918Z,21.2
2023-02-22T05:36:23.710Z,20.8
2023-02-22T05:41:23.797Z,19.5
2023-02-22T05:46:23.842Z,19.2
2023-02-22T05:51:23.802Z,19.4
2023-02-22T05:56:23.733Z,17.5
2023-02-22T06:01:23.835Z,17.5
2023-02-22T06:06:23.730Z,17
2023-02-22T06:11:23.797Z,18.7
2023-02-22T06:16:23.887Z,17.5
2023-02-22T06:21:23.824Z,18.1
2023-02-22T06:26:23.744Z,16.8
2023-02-22T06:31:23.881Z,16.8
2023-02-22T06:36:23.738Z,14.9
2023-02-22T06:41:23.833Z,12.5
2023-02-22T06:46:23.747Z,12
2023-02-22T06:51:23.836Z,10.4
2023-02-22T06:56:23.740Z,9.6
2023-02-22T07:01:23.887Z,9.6
2023-02-22T07:06:23.752Z,10.4
2023-02-22T07:11:23.839Z,11.4
2023-02-22T07:16:23.820Z,10
2023-02-22T07:21:23.847Z,10.2
2023-02-22T07:26:23.786Z,11.8
2023-02-22T07:31:23.844Z,11.8
2023-02-22T07:36:23.771Z,11.5
2023-02-22T07:41:23.856Z,12.6
2023-02-22T07:46:23.751Z,13.9
2023-02-22T07:51:23.850Z,13.6
2023-02-22T07:56:23.778Z,12.6
2023-02-22T08:01:23.817Z,12.6
2023-02-22T08:06:23.779Z,13
2023-02-22T08:11:23.875Z,11.4
2023-02-22T08:16:23.772Z,14
2023-02-22T08:21:23.867Z,13.7
2023-02-22T08:26:23.782Z,11
2023-02-22T08:31:23.882Z,11
2023-02-22T08:36:23.890Z,13.5
2023-02-22T08:41:23.870Z,13.8
2023-02-22T08:46:23.779Z,12.4
2023-02-22T08:51:23.865Z,11.3
2023-02-22T08:56:23.799Z,13.9
2023-02-22T09:01:32.601Z,13.9
2023-02-22T09:06:23.778Z,13.2
2023-02-22T09:11:23.875Z,12.8
2023-02-22T09:16:23.826Z,11.6
2023-02-22T09:21:23.878Z,12.7
2023-02-22T09:26:23.843Z,11.3
2023-02-22T09:31:23.921Z,11.3
2023-02-22T09:36:26.071Z,11.9
2023-02-22T09:41:23.875Z,12.4
2023-02-22T09:46:23.789Z,11.5
2023-02-22T09:51:23.881Z,11.4
2023-02-22T09:56:23.807Z,10.7
2023-02-22T10:01:23.888Z,10.7
2023-02-22T10:06:23.799Z,11.3
2023-02-22T10:11:23.899Z,10.6
2023-02-22T10:16:23.794Z,10.3
2023-02-22T10:21:23.900Z,11.4
2023-02-22T10:26:23.821Z,8.5
2023-02-22T10:31:24.040Z,8.5
2023-02-22T10:36:23.824Z,9.7
2023-02-22T10:41:23.910Z,8.8
2023-02-22T10:46:23.842Z,8.7
2023-02-22T10:51:23.886Z,8.6
2023-02-22T10:56:23.874Z,9.5
2023-02-22T11:01:23.945Z,9.5
2023-02-22T11:06:23.820Z,8.4
2023-02-22T11:11:23.919Z,8
2023-02-22T11:16:23.881Z,7
2023-02-22T11:21:23.875Z,9.3
2023-02-22T11:26:23.898Z,8.6
2023-02-22T11:31:23.928Z,8.6
2023-02-22T11:36:23.904Z,8
2023-02-22T11:41:23.916Z,9
2023-02-22T11:46:23.899Z,10
2023-02-22T11:51:23.883Z,9
2023-02-22T11:56:36.897Z,8.8
2023-02-22T12:01:23.911Z,8.8
2023-02-22T12:06:23.816Z,8.7
2023-02-22T12:11:23.931Z,7.1
2023-02-22T12:16:23.828Z,6.6
2023-02-22T12:21:23.915Z,6.3
2023-02-22T12:26:23.824Z,4.7
2023-02-22T12:31:24.087Z,4.7
2023-02-22T12:36:23.849Z,3.2
2023-02-22T12:41:23.944Z,2.1
2023-02-22T12:46:23.868Z,1.5
2023-02-22T12:51:23.946Z,1.4
2023-02-22T12:56:23.843Z,1.4
2023-02-22T13:01:23.987Z,1.4
2023-02-22T13:06:23.856Z,1.4
2023-02-22T13:16:23.871Z,1.5
2023-02-22T13:21:23.969Z,1.3
2023-02-22T13:26:23.851Z,1.2
2023-02-22T13:31:24.089Z,1.2
2023-02-22T13:36:23.857Z,0.9
2023-02-22T13:41:23.960Z,1
2023-02-22T13:46:23.940Z,1.3
2023-02-22T13:51:23.962Z,0.8
2023-02-22T13:56:23.888Z,0.9
2023-02-22T14:01:23.944Z,0.9
2023-02-22T14:06:23.878Z,0.7
2023-02-22T14:11:23.958Z,0.5
2023-02-22T14:16:23.886Z,0.5
2023-02-22T14:21:23.961Z,0.8
2023-02-22T14:26:23.865Z,0.3
2023-02-22T14:31:35.470Z,0.3
2023-02-22T14:36:23.880Z,0.6
2023-02-22T14:41:23.925Z,0.7
2023-02-22T14:46:24.080Z,0.9
2023-02-22T14:51:26.781Z,1.1
2023-02-22T14:56:23.908Z,0.6
2023-02-22T15:01:27.248Z,0.6
2023-02-22T15:06:23.886Z,0.5
2023-02-22T15:11:23.970Z,0.5
2023-02-22T15:16:23.967Z,0.5
2023-02-22T15:21:23.950Z,0.4
2023-02-22T15:26:23.892Z,0.5
2023-02-22T15:31:24.048Z,0.5
2023-02-22T15:36:23.901Z,0.8
2023-02-22T15:41:23.979Z,0.7
2023-02-22T15:46:23.923Z,0.9
2023-02-22T15:51:23.995Z,0.9
2023-02-22T15:56:23.896Z,0.9
2023-02-22T16:01:24.043Z,0.9
2023-02-22T16:06:23.923Z,1.2
2023-02-22T16:11:23.991Z,1
2023-02-22T16:16:23.993Z,0.6
2023-02-22T16:21:23.957Z,0.4
2023-02-22T16:26:23.896Z,0.4
2023-02-22T16:31:24.036Z,0.4
2023-02-22T16:36:23.911Z,0.3
2023-02-22T16:41:23.952Z,0.5
2023-02-22T16:46:23.913Z,0.3
2023-02-22T16:51:24.004Z,0.4
2023-02-22T16:56:23.897Z,0.1
2023-02-22T17:01:24.153Z,0.1
2023-02-22T17:06:23.902Z,0.6
2023-02-22T17:11:23.995Z,0.7
2023-02-22T17:21:23.955Z,0.4
2023-02-22T17:26:23.939Z,0.3
2023-02-22T17:31:24.072Z,0.3
2023-02-22T17:36:23.902Z,0.5
2023-02-22T17:41:23.988Z,0.4
2023-02-22T17:46:23.982Z,0.6
2023-02-22T17:51:23.956Z,0.5
2023-02-22T17:56:23.907Z,0.7
2023-02-22T18:01:24.154Z,0.7
2023-02-22T18:06:25.275Z,2.9
2023-02-22T18:11:23.998Z,2.1
2023-02-22T18:16:23.947Z,3.2
2023-02-22T18:21:23.967Z,1.6
2023-02-22T18:26:24.149Z,0.9
2023-02-22T18:31:24.098Z,0.9
2023-02-22T18:36:24.070Z,0.6
2023-02-22T18:41:23.964Z,0.6
2023-02-22T18:56:23.929Z,1
2023-02-22T19:01:24.024Z,1
2023-02-22T19:06:23.923Z,1.1
2023-02-22T19:11:23.977Z,1.3
2023-02-22T19:21:24.024Z,1.8
2023-02-22T19:26:24.145Z,2.7
2023-02-22T19:31:24.582Z,2.7
2023-02-22T19:41:24.044Z,2
2023-02-22T19:46:23.920Z,1.9
2023-02-22T19:51:24.027Z,1.7
2023-02-22T19:56:23.937Z,1.7
2023-02-22T20:01:24.037Z,1.4
2023-02-22T20:06:23.934Z,2.2
2023-02-22T20:11:24.031Z,1.6
2023-02-22T20:16:23.984Z,1.9
2023-02-22T20:21:23.986Z,1.6
2023-02-22T20:26:23.946Z,1.6
2023-02-22T20:31:24.144Z,1.6
2023-02-22T20:36:23.944Z,1.7
2023-02-22T20:46:23.949Z,1.1
2023-02-22T20:51:23.994Z,1.3
2023-02-22T20:56:23.952Z,1.3
2023-02-22T21:01:24.042Z,1.3
2023-02-22T21:06:23.955Z,0.9
2023-02-22T21:11:24.036Z,0.9
2023-02-22T21:21:24.006Z,0.9
2023-02-22T21:26:23.967Z,0.9
2023-02-22T21:31:24.735Z,1
2023-02-22T21:36:23.953Z,1.3
2023-02-22T21:41:24.051Z,1.2
2023-02-22T21:46:24.070Z,1.2
2023-02-22T21:51:24.022Z,0.8
2023-02-22T21:56:23.965Z,0.8
2023-02-22T22:01:24.054Z,1
2023-02-22T22:06:23.971Z,1
2023-02-22T22:11:24.016Z,1.3
2023-02-22T22:21:24.041Z,0.8
2023-02-22T22:26:23.990Z,0.8
2023-02-22T22:31:24.410Z,0.9
2023-02-22T22:36:23.980Z,1
2023-02-22T22:41:24.029Z,0.9
2023-02-22T22:46:24.072Z,1.9
2023-02-22T22:51:24.022Z,1.2
2023-02-22T22:56:23.977Z,1.2
2023-02-22T23:01:24.065Z,0.9
2023-02-22T23:06:23.973Z,1.1
2023-02-22T23:11:24.030Z,1.2
2023-02-22T23:16:24.009Z,1
2023-02-22T23:21:24.084Z,1.3
2023-02-22T23:26:23.975Z,1.3
2023-02-22T23:31:24.133Z,0.9
2023-02-22T23:36:23.983Z,1.1
2023-02-22T23:41:24.079Z,1.5
2023-02-22T23:46:24.075Z,0.9
2023-02-22T23:51:24.075Z,1
2023-02-22T23:56:23.998Z,1
